createdAt,value
2022-08-02T00:00:13.101Z,22.20
2022-08-02T00:02:39.629Z,22.17
2022-08-02T00:05:06.844Z,22.13
2022-08-02T00:07:37.737Z,22.06
2022-08-02T00:10:10.604Z,22.05
2022-08-02T00:12:44.070Z,22.00
2022-08-02T00:15:11.096Z,21.97
2022-08-02T00:17:50.321Z,21.94
2022-08-02T00:20:16.814Z,21.93
2022-08-02T00:22:45.438Z,21.87
2022-08-02T00:25:12.110Z,21.83
2022-08-02T00:27:43.374Z,21.90
2022-08-02T00:30:12.917Z,21.89
2022-08-02T00:32:41.832Z,21.85
2022-08-02T00:35:08.776Z,21.84
2022-08-02T00:37:46.338Z,21.79
2022-08-02T00:40:17.313Z,21.74
2022-08-02T00:42:50.380Z,21.69
2022-08-02T00:45:21.663Z,21.59
2022-08-02T00:48:16.391Z,21.56
2022-08-02T00:50:44.203Z,21.48
2022-08-02T00:53:17.377Z,21.46
2022-08-02T00:55:43.977Z,21.44
2022-08-02T00:58:17.360Z,21.42
2022-08-02T01:00:46.499Z,21.43
2022-08-02T01:03:19.371Z,21.37
2022-08-02T01:06:10.239Z,21.40
2022-08-02T01:08:38.367Z,21.35
2022-08-02T01:11:05.057Z,21.34
2022-08-02T01:13:44.356Z,21.34
2022-08-02T01:16:15.960Z,21.32
2022-08-02T01:18:54.406Z,21.33
2022-08-02T01:21:39.311Z,21.32
2022-08-02T01:24:27.376Z,21.31
2022-08-02T01:27:05.656Z,21.27
2022-08-02T01:29:44.422Z,21.32
2022-08-02T01:32:20.516Z,21.31
2022-08-02T01:35:14.377Z,21.33
2022-08-02T01:37:55.334Z,21.34
2022-08-02T01:40:35.421Z,21.36
2022-08-02T01:43:04.821Z,21.35
2022-08-02T01:45:48.408Z,21.37
2022-08-02T01:48:16.385Z,21.33
2022-08-02T01:50:51.380Z,21.30
2022-08-02T01:53:20.245Z,21.26
2022-08-02T01:55:57.755Z,21.28
2022-08-02T01:58:29.899Z,21.28
2022-08-02T02:00:58.267Z,21.27
2022-08-02T02:03:34.146Z,21.26
2022-08-02T02:06:04.056Z,21.23
2022-08-02T02:08:35.084Z,21.12
2022-08-02T02:12:08.646Z,21.01
2022-08-02T02:13:50.398Z,20.75
2022-08-02T02:16:19.061Z,20.86
2022-08-02T02:18:51.678Z,20.76
2022-08-02T02:21:18.408Z,20.74
2022-08-02T02:23:45.026Z,20.80
2022-08-02T02:26:15.209Z,20.78
2022-08-02T02:28:47.721Z,20.73
2022-08-02T02:31:18.799Z,20.65
2022-08-02T02:33:57.149Z,20.60
2022-08-02T02:36:23.841Z,20.52
2022-08-02T02:38:53.060Z,20.41
2022-08-02T02:41:21.294Z,20.34
2022-08-02T02:43:49.073Z,20.35
2022-08-02T02:46:18.084Z,20.38
2022-08-02T02:48:45.042Z,20.34
2022-08-02T02:51:14.123Z,20.36
2022-08-02T02:54:32.101Z,20.35
2022-08-02T02:56:31.550Z,20.30
2022-08-02T02:59:00.602Z,20.30
2022-08-02T03:01:56.363Z,20.23
2022-08-02T03:04:21.107Z,20.20
2022-08-02T03:06:47.743Z,20.21
2022-08-02T03:09:16.745Z,20.16
2022-08-02T03:11:43.566Z,20.10
2022-08-02T03:14:12.338Z,20.07
2022-08-02T03:16:44.180Z,19.99
2022-08-02T03:19:10.646Z,19.99
2022-08-02T03:21:37.699Z,20.03
2022-08-02T03:24:04.985Z,20.04
2022-08-02T03:26:31.410Z,20.04
2022-08-02T03:28:57.958Z,20.07
2022-08-02T03:31:24.461Z,20.06
2022-08-02T03:33:51.233Z,19.99
2022-08-02T03:36:21.202Z,20.00
2022-08-02T03:38:48.160Z,20.08
2022-08-02T03:41:20.655Z,20.04
2022-08-02T03:43:48.439Z,20.05
2022-08-02T03:46:19.378Z,20.06
2022-08-02T03:48:47.597Z,20.09
2022-08-02T03:51:14.562Z,20.10
2022-08-02T03:53:41.562Z,20.06
2022-08-02T03:56:11.256Z,20.06
2022-08-02T03:58:37.884Z,20.04
2022-08-02T04:01:06.878Z,20.05
2022-08-02T04:03:33.613Z,19.99
2022-08-02T04:06:04.099Z,19.88
2022-08-02T04:08:37.977Z,19.76
2022-08-02T04:11:23.995Z,19.75
2022-08-02T04:13:54.677Z,19.67
2022-08-02T04:16:37.736Z,19.77
2022-08-02T04:19:14.894Z,19.75
2022-08-02T04:21:51.658Z,19.74
2022-08-02T04:24:25.162Z,19.81
2022-08-02T04:27:06.559Z,19.76
2022-08-02T04:29:47.169Z,19.69
2022-08-02T04:32:14.814Z,19.76
2022-08-02T04:34:44.880Z,19.82
2022-08-02T04:37:17.077Z,19.81
2022-08-02T04:39:43.779Z,19.81
2022-08-02T04:42:10.432Z,19.84
2022-08-02T04:44:37.891Z,19.85
2022-08-02T04:47:06.892Z,19.83
2022-08-02T04:49:33.656Z,19.74
2022-08-02T04:52:01.068Z,19.68
2022-08-02T04:54:27.597Z,19.69
2022-08-02T04:56:54.028Z,19.68
2022-08-02T04:59:20.983Z,19.66
2022-08-02T05:01:47.405Z,19.72
2022-08-02T05:04:13.935Z,19.74
2022-08-02T05:06:40.369Z,19.75
2022-08-02T05:09:06.794Z,19.69
2022-08-02T05:11:36.506Z,19.65
2022-08-02T05:14:05.561Z,19.66
2022-08-02T05:16:32.525Z,19.71
2022-08-02T05:19:02.904Z,19.78
2022-08-02T05:21:30.276Z,19.90
2022-08-02T05:23:56.996Z,20.00
2022-08-02T05:26:25.725Z,20.12
2022-08-02T05:28:52.321Z,20.27
2022-08-02T05:31:18.813Z,20.44
2022-08-02T05:33:45.314Z,20.57
2022-08-02T05:36:11.738Z,20.70
2022-08-02T05:38:38.235Z,20.74
2022-08-02T05:41:07.842Z,20.84
2022-08-02T05:43:34.482Z,20.82
2022-08-02T05:46:05.847Z,20.86
2022-08-02T05:48:32.515Z,20.97
2022-08-02T05:51:04.871Z,21.01
2022-08-02T05:53:46.594Z,21.09
2022-08-02T05:56:37.548Z,21.20
2022-08-02T05:59:22.163Z,21.35
2022-08-02T06:01:52.421Z,21.49
2022-08-02T06:04:25.585Z,21.60
2022-08-02T06:06:56.509Z,21.68
2022-08-02T06:09:27.473Z,21.72
2022-08-02T06:12:02.178Z,21.77
2022-08-02T06:14:32.978Z,21.98
2022-08-02T06:17:04.122Z,22.00
2022-08-02T06:19:46.871Z,22.14
2022-08-02T06:22:35.751Z,22.23
2022-08-02T06:25:04.207Z,22.26
2022-08-02T06:27:30.794Z,22.42
2022-08-02T06:29:57.893Z,22.57
2022-08-02T06:32:27.455Z,22.51
2022-08-02T06:34:54.307Z,22.62
2022-08-02T06:37:31.054Z,22.81
2022-08-02T06:40:21.221Z,22.79
2022-08-02T06:43:11.342Z,23.04
2022-08-02T06:45:38.192Z,23.23
2022-08-02T06:48:05.460Z,23.37
2022-08-02T06:50:32.220Z,23.49
2022-08-02T06:53:01.588Z,23.24
2022-08-02T06:55:29.579Z,23.30
2022-08-02T06:57:55.990Z,23.36
2022-08-02T07:00:22.510Z,23.41
2022-08-02T07:02:49.563Z,23.53
2022-08-02T07:05:16.287Z,23.34
2022-08-02T07:07:43.142Z,23.54
2022-08-02T07:10:09.685Z,23.57
2022-08-02T07:12:36.461Z,23.63
2022-08-02T07:15:06.459Z,23.65
2022-08-02T07:17:33.985Z,23.83
2022-08-02T07:20:01.030Z,23.85
2022-08-02T07:22:34.662Z,24.11
2022-08-02T07:25:01.897Z,24.25
2022-08-02T07:27:35.665Z,24.47
2022-08-02T07:30:02.155Z,24.60
2022-08-02T07:32:36.700Z,24.51
2022-08-02T07:35:06.953Z,24.53
2022-08-02T07:37:54.786Z,24.75
2022-08-02T07:40:25.019Z,24.95
2022-08-02T07:42:57.969Z,25.00
2022-08-02T07:45:31.984Z,24.93
2022-08-02T07:47:58.413Z,25.18
2022-08-02T07:50:24.939Z,25.39
2022-08-02T07:52:57.361Z,25.55
2022-08-02T07:55:31.167Z,25.67
2022-08-02T07:58:06.980Z,25.82
2022-08-02T08:00:37.884Z,25.78
2022-08-02T08:03:04.328Z,25.66
2022-08-02T08:05:30.765Z,25.70
2022-08-02T08:08:06.689Z,25.91
2022-08-02T08:10:33.495Z,26.21
2022-08-02T08:13:13.713Z,26.29
2022-08-02T08:15:40.197Z,26.30
2022-08-02T08:18:06.634Z,26.30
2022-08-02T08:20:33.188Z,26.47
2022-08-02T08:22:59.848Z,26.49
2022-08-02T08:25:31.105Z,26.63
2022-08-02T08:28:06.221Z,26.84
2022-08-02T08:30:35.179Z,26.80
2022-08-02T08:33:01.967Z,27.00
2022-08-02T08:35:28.797Z,26.83
2022-08-02T08:37:57.684Z,26.98
2022-08-02T08:40:25.285Z,27.09
2022-08-02T08:42:52.214Z,26.93
2022-08-02T08:45:18.683Z,26.60
2022-08-02T08:47:53.181Z,26.89
2022-08-02T08:50:25.258Z,27.13
2022-08-02T08:53:07.795Z,26.99
2022-08-02T08:55:37.524Z,26.90
2022-08-02T08:58:05.347Z,27.00
2022-08-02T09:00:34.732Z,27.10
2022-08-02T09:03:06.699Z,27.27
2022-08-02T09:05:39.274Z,27.59
2022-08-02T09:08:07.179Z,27.37
2022-08-02T09:10:34.638Z,27.35
2022-08-02T09:13:38.444Z,27.51
2022-08-02T09:16:14.709Z,27.15
2022-08-02T09:18:52.773Z,27.45
2022-08-02T09:21:19.184Z,27.38
2022-08-02T09:23:55.465Z,27.50
2022-08-02T09:26:23.811Z,27.41
2022-08-02T09:28:59.623Z,27.70
2022-08-02T09:31:26.569Z,27.86
2022-08-02T09:33:57.261Z,27.82
2022-08-02T09:36:25.287Z,27.73
2022-08-02T09:39:04.237Z,27.74
2022-08-02T09:41:33.739Z,27.74
2022-08-02T09:44:04.380Z,28.18
2022-08-02T09:46:47.927Z,28.42
2022-08-02T09:49:16.514Z,28.57
2022-08-02T09:51:49.445Z,28.82
2022-08-02T09:54:18.947Z,28.87
2022-08-02T09:56:47.126Z,29.01
2022-08-02T09:59:15.013Z,29.13
2022-08-02T10:01:44.332Z,29.10
2022-08-02T10:04:26.371Z,28.78
2022-08-02T10:06:56.739Z,28.97
2022-08-02T10:09:23.396Z,29.03
2022-08-02T10:11:51.205Z,28.71
2022-08-02T10:14:20.445Z,28.72
2022-08-02T10:16:46.850Z,28.92
2022-08-02T10:19:13.359Z,28.99
2022-08-02T10:22:04.777Z,28.93
2022-08-02T10:24:32.346Z,28.72
2022-08-02T10:27:06.464Z,28.98
2022-08-02T10:29:43.946Z,29.27
2022-08-02T10:32:31.317Z,29.40
2022-08-02T10:35:20.031Z,29.72
2022-08-02T10:38:01.138Z,29.70
2022-08-02T10:40:45.507Z,30.00
2022-08-02T10:43:13.521Z,30.19
2022-08-02T10:45:40.149Z,29.83
2022-08-02T10:48:12.275Z,29.62
2022-08-02T10:50:50.745Z,29.86
2022-08-02T10:53:21.473Z,29.48
2022-08-02T10:55:47.890Z,29.63
2022-08-02T10:58:26.043Z,29.18
2022-08-02T11:01:06.949Z,29.42
2022-08-02T11:03:40.382Z,29.69
2022-08-02T11:06:25.509Z,29.61
2022-08-02T11:09:41.235Z,29.51
2022-08-02T11:12:26.880Z,29.69
2022-08-02T11:15:07.430Z,29.48
2022-08-02T11:18:01.893Z,29.53
2022-08-02T11:20:28.574Z,29.59
2022-08-02T11:23:02.867Z,29.59
2022-08-02T11:25:54.387Z,29.41
2022-08-02T11:28:24.598Z,29.73
2022-08-02T11:31:02.747Z,29.44
2022-08-02T11:33:33.782Z,29.75
2022-08-02T11:36:06.158Z,29.96
2022-08-02T11:38:35.207Z,29.90
2022-08-02T11:41:09.989Z,29.82
2022-08-02T11:43:40.019Z,29.73
2022-08-02T11:46:15.970Z,29.89
2022-08-02T11:48:44.038Z,29.95
2022-08-02T11:51:15.805Z,30.32
2022-08-02T11:53:53.911Z,30.44
2022-08-02T11:56:29.074Z,30.61
2022-08-02T11:59:10.670Z,30.73
2022-08-02T12:01:49.004Z,30.99
2022-08-02T12:04:22.546Z,31.24
2022-08-02T12:06:59.775Z,31.20
2022-08-02T12:09:31.620Z,31.23
2022-08-02T12:11:59.331Z,31.21
2022-08-02T12:14:31.173Z,31.35
2022-08-02T12:17:37.264Z,31.49
2022-08-02T12:20:14.053Z,31.26
2022-08-02T12:22:42.120Z,31.14
2022-08-02T12:25:34.025Z,31.09
2022-08-02T12:28:25.288Z,31.00
2022-08-02T12:30:59.690Z,30.88
2022-08-02T12:33:28.706Z,30.97
2022-08-02T12:35:56.163Z,31.05
2022-08-02T12:38:22.850Z,31.15
2022-08-02T12:40:56.086Z,31.06
2022-08-02T12:43:24.293Z,31.09
2022-08-02T12:46:02.946Z,31.24
2022-08-02T12:48:52.338Z,31.33
2022-08-02T12:51:54.836Z,31.56
2022-08-02T12:54:31.744Z,31.55
2022-08-02T12:57:16.958Z,31.52
2022-08-02T12:59:49.120Z,31.39
2022-08-02T13:02:25.078Z,31.29
2022-08-02T13:04:53.986Z,31.23
2022-08-02T13:07:26.960Z,31.33
2022-08-02T13:10:03.169Z,31.18
2022-08-02T13:12:36.967Z,31.19
2022-08-02T13:15:03.741Z,31.10
2022-08-02T13:17:39.565Z,31.07
2022-08-02T13:20:07.471Z,31.29
2022-08-02T13:22:38.264Z,31.36
2022-08-02T13:25:20.653Z,31.42
2022-08-02T13:27:52.300Z,31.40
2022-08-02T13:30:19.345Z,31.38
2022-08-02T13:32:45.985Z,31.53
2022-08-02T13:35:17.843Z,31.45
2022-08-02T13:37:45.449Z,31.25
2022-08-02T13:40:22.351Z,31.19
2022-08-02T13:42:49.496Z,31.41
2022-08-02T13:45:16.059Z,31.37
2022-08-02T13:48:03.345Z,31.43
2022-08-02T13:50:31.291Z,31.33
2022-08-02T13:52:59.934Z,31.34
2022-08-02T13:55:26.498Z,31.40
2022-08-02T13:57:53.795Z,31.51
2022-08-02T14:00:34.947Z,31.43
2022-08-02T14:03:05.954Z,31.36
2022-08-02T14:05:45.407Z,31.32
2022-08-02T14:08:22.786Z,31.42
2022-08-02T14:10:54.055Z,31.34
2022-08-02T14:13:22.711Z,31.32
2022-08-02T14:15:49.258Z,31.39
2022-08-02T14:18:18.715Z,31.37
2022-08-02T14:20:45.458Z,31.13
2022-08-02T14:23:12.297Z,31.09
2022-08-02T14:25:39.226Z,31.18
2022-08-02T14:28:06.078Z,31.12
2022-08-02T14:30:34.931Z,30.98
2022-08-02T14:33:08.136Z,31.05
2022-08-02T14:35:35.028Z,30.90
2022-08-02T14:38:01.633Z,30.77
2022-08-02T14:40:31.516Z,30.78
2022-08-02T14:43:02.359Z,30.64
2022-08-02T14:45:40.256Z,30.16
2022-08-02T14:48:07.700Z,30.21
2022-08-02T14:50:34.434Z,30.34
2022-08-02T14:53:00.891Z,30.28
2022-08-02T14:55:27.303Z,30.24
2022-08-02T14:58:00.078Z,30.13
2022-08-02T15:00:31.186Z,30.26
2022-08-02T15:03:17.334Z,30.28
2022-08-02T15:05:48.363Z,30.21
2022-08-02T15:08:22.104Z,30.12
2022-08-02T15:10:50.949Z,30.11
2022-08-02T15:13:24.100Z,30.14
2022-08-02T15:15:50.738Z,30.16
2022-08-02T15:18:17.192Z,30.21
2022-08-02T15:20:54.520Z,30.13
2022-08-02T15:23:24.919Z,30.12
2022-08-02T15:26:06.732Z,30.07
2022-08-02T15:28:35.725Z,30.01
2022-08-02T15:31:04.666Z,29.85
2022-08-02T15:33:31.132Z,29.88
2022-08-02T15:35:57.624Z,29.79
2022-08-02T15:38:24.157Z,29.78
2022-08-02T15:40:50.648Z,29.59
2022-08-02T15:43:17.129Z,29.63
2022-08-02T15:45:43.543Z,29.59
2022-08-02T15:48:10.412Z,29.56
2022-08-02T15:50:41.790Z,29.59
2022-08-02T15:53:08.245Z,29.61
2022-08-02T15:55:39.867Z,29.60
2022-08-02T15:58:22.521Z,29.61
2022-08-02T16:00:49.634Z,29.61
2022-08-02T16:03:16.023Z,29.63
2022-08-02T16:05:45.018Z,29.57
2022-08-02T16:08:18.162Z,29.55
2022-08-02T16:10:44.589Z,29.51
2022-08-02T16:13:39.654Z,29.49
2022-08-02T16:16:22.366Z,29.39
2022-08-02T16:18:55.141Z,29.35
2022-08-02T16:21:25.470Z,29.17
2022-08-02T16:24:03.068Z,29.22
2022-08-02T16:26:31.320Z,29.12
2022-08-02T16:29:01.264Z,29.09
2022-08-02T16:31:28.010Z,29.03
2022-08-02T16:33:57.191Z,28.93
2022-08-02T16:36:25.701Z,28.90
2022-08-02T16:38:53.754Z,28.90
2022-08-02T16:41:20.927Z,28.94
2022-08-02T16:43:47.474Z,28.92
2022-08-02T16:46:14.035Z,28.85
2022-08-02T16:48:41.034Z,28.76
2022-08-02T16:51:13.919Z,28.73
2022-08-02T16:54:00.352Z,28.68
2022-08-02T16:56:28.267Z,28.64
2022-08-02T16:58:55.004Z,28.64
2022-08-02T17:01:27.068Z,28.56
2022-08-02T17:03:56.885Z,28.56
2022-08-02T17:06:26.258Z,28.52
2022-08-02T17:08:56.119Z,28.49
2022-08-02T17:11:29.815Z,28.46
2022-08-02T17:13:56.334Z,28.44
2022-08-02T17:16:26.488Z,28.36
2022-08-02T17:19:01.206Z,28.33
2022-08-02T17:21:30.024Z,28.21
2022-08-02T17:24:05.993Z,28.22
2022-08-02T17:26:36.549Z,28.17
2022-08-02T17:29:16.425Z,28.13
2022-08-02T17:32:05.006Z,28.11
2022-08-02T17:34:40.217Z,28.04
2022-08-02T17:37:15.566Z,28.00
2022-08-02T17:39:52.202Z,28.01
2022-08-02T17:42:20.171Z,27.96
2022-08-02T17:44:50.005Z,27.95
2022-08-02T17:47:18.119Z,27.90
2022-08-02T17:49:49.424Z,27.88
2022-08-02T17:52:52.092Z,27.85
2022-08-02T17:55:04.155Z,27.76
2022-08-02T17:57:55.565Z,27.77
2022-08-02T18:00:18.208Z,27.76
2022-08-02T18:02:52.766Z,27.71
2022-08-02T18:05:38.998Z,27.70
2022-08-02T18:08:08.188Z,27.69
2022-08-02T18:10:56.453Z,27.59
2022-08-02T18:13:23.491Z,27.50
2022-08-02T18:15:57.026Z,27.48
2022-08-02T18:18:29.743Z,27.45
2022-08-02T18:20:57.126Z,27.41
2022-08-02T18:23:24.076Z,27.42
2022-08-02T18:25:58.258Z,27.41
2022-08-02T18:28:26.733Z,27.35
2022-08-02T18:31:00.226Z,27.34
2022-08-02T18:33:59.935Z,27.29
2022-08-02T18:36:28.263Z,27.24
2022-08-02T18:38:54.903Z,27.22
2022-08-02T18:41:28.716Z,27.17
2022-08-02T18:43:57.352Z,27.14
2022-08-02T18:46:30.290Z,27.08
2022-08-02T18:48:57.979Z,26.98
2022-08-02T18:51:40.282Z,26.85
2022-08-02T18:54:10.605Z,26.74
2022-08-02T18:56:47.449Z,26.59
2022-08-02T18:59:17.115Z,26.50
2022-08-02T19:01:50.554Z,26.42
2022-08-02T19:04:26.806Z,26.34
2022-08-02T19:07:05.460Z,26.23
2022-08-02T19:09:34.738Z,26.22
2022-08-02T19:12:01.199Z,26.30
2022-08-02T19:14:28.789Z,26.21
2022-08-02T19:17:16.139Z,26.12
2022-08-02T19:19:48.124Z,26.06
2022-08-02T19:22:20.385Z,26.04
2022-08-02T19:24:50.296Z,25.95
2022-08-02T19:27:26.030Z,25.98
2022-08-02T19:29:58.995Z,26.07
2022-08-02T19:32:42.790Z,25.92
2022-08-02T19:35:19.330Z,25.96
2022-08-02T19:37:59.648Z,25.86
2022-08-02T19:40:28.791Z,25.66
2022-08-02T19:44:23.585Z,25.48
2022-08-02T19:45:49.886Z,25.33
2022-08-02T19:48:23.559Z,25.18
2022-08-02T19:50:56.202Z,25.00
2022-08-02T19:53:24.125Z,24.93
2022-08-02T19:56:03.044Z,24.86
2022-08-02T19:58:30.946Z,24.76
2022-08-02T20:01:03.823Z,24.64
2022-08-02T20:03:51.426Z,24.51
2022-08-02T20:06:18.039Z,24.45
2022-08-02T20:08:52.935Z,24.37
2022-08-02T20:14:16.487Z,24.25
2022-08-02T20:16:46.024Z,24.18
2022-08-02T20:19:13.792Z,24.13
2022-08-02T20:21:50.506Z,24.07
2022-08-02T20:24:27.314Z,24.01
2022-08-02T20:26:54.925Z,23.94
2022-08-02T20:29:45.044Z,23.89
2022-08-02T20:32:22.851Z,23.84
2022-08-02T20:34:56.375Z,23.79
2022-08-02T20:37:59.269Z,23.74
2022-08-02T20:40:19.376Z,23.71
2022-08-02T20:42:48.042Z,23.63
2022-08-02T20:45:21.363Z,23.61
2022-08-02T20:47:52.404Z,23.55
2022-08-02T20:50:38.402Z,23.52
2022-08-02T20:53:06.438Z,23.50
2022-08-02T20:56:12.704Z,23.41
2022-08-02T20:59:21.130Z,23.36
2022-08-02T21:02:27.776Z,23.28
2022-08-02T21:05:44.002Z,23.20
2022-08-02T21:08:55.459Z,23.09
2022-08-02T21:11:59.146Z,23.01
2022-08-02T21:15:02.890Z,22.93
2022-08-02T21:18:12.576Z,22.83
2022-08-02T21:21:23.947Z,22.72
2022-08-02T21:24:30.519Z,22.66
2022-08-02T21:27:52.555Z,22.63
2022-08-02T21:30:57.857Z,22.56
2022-08-02T21:34:05.058Z,22.51
2022-08-02T21:37:33.083Z,22.45
2022-08-02T21:40:37.294Z,22.40
2022-08-02T21:43:43.919Z,22.33
2022-08-02T21:46:49.557Z,22.27
2022-08-02T21:50:12.671Z,22.27
2022-08-02T21:53:18.950Z,22.20
2022-08-02T21:56:04.650Z,22.09
2022-08-02T21:58:36.262Z,22.05
2022-08-02T22:01:02.770Z,21.99
2022-08-02T22:03:29.625Z,21.95
2022-08-02T22:05:56.211Z,21.91
2022-08-02T22:08:22.778Z,21.90
2022-08-02T22:11:03.182Z,21.87
2022-08-02T22:13:38.949Z,21.78
2022-08-02T22:16:14.020Z,21.73
2022-08-02T22:18:51.366Z,21.58
2022-08-02T22:21:20.147Z,21.58
2022-08-02T22:23:50.525Z,21.56
2022-08-02T22:26:19.163Z,21.51
2022-08-02T22:28:51.111Z,21.48
2022-08-02T22:31:40.660Z,21.47
2022-08-02T22:34:26.853Z,21.44
2022-08-02T22:36:58.709Z,21.40
2022-08-02T22:39:25.276Z,21.31
2022-08-02T22:42:10.848Z,21.25
2022-08-02T22:44:41.403Z,21.25
2022-08-02T22:47:14.647Z,21.20
2022-08-02T22:49:54.496Z,21.13
2022-08-02T22:52:23.948Z,21.10
2022-08-02T22:54:52.620Z,21.07
2022-08-02T22:57:30.723Z,21.04
2022-08-02T22:59:08.489Z,24.31
2022-08-02T22:59:58.880Z,21.02
2022-08-02T23:02:25.656Z,20.99
2022-08-02T23:04:52.323Z,20.97
2022-08-02T23:07:25.490Z,20.96
2022-08-02T23:09:52.175Z,20.95
2022-08-02T23:12:32.503Z,20.85
2022-08-02T23:14:59.106Z,20.84
2022-08-02T23:17:53.076Z,20.70
2022-08-02T23:20:19.977Z,20.67
2022-08-02T23:22:52.493Z,20.61
2022-08-02T23:25:22.225Z,20.54
2022-08-02T23:27:50.990Z,20.52
2022-08-02T23:30:19.021Z,20.49
2022-08-02T23:32:46.854Z,20.43
2022-08-02T23:35:17.303Z,20.34
2022-08-02T23:37:59.081Z,20.31
2022-08-02T23:40:39.486Z,20.29
2022-08-02T23:43:14.566Z,20.23
2022-08-02T23:45:46.074Z,20.19
2022-08-02T23:48:13.236Z,20.15
2022-08-02T23:50:42.121Z,20.14
2022-08-02T23:53:11.674Z,20.14
2022-08-02T23:55:38.057Z,20.10
2022-08-02T23:58:04.452Z,20.06
